Time;durP1;ratioP1;P1;durP2;ratioP2;P2;SDS_P1;SDS_P2;PMS_P1;PMS_P2;Temp;Humidity;BMP_temperature;BMP_pressure;BME280_temperature;BME280_humidity;BME280_pressure;Samples;Min_cycle;Max_cycle;Signal;HPM_P1;HPM_P2
2022/11/22 00:00:46;;;;;;;0.10;0.10;;;;;;;;;;5081231;28;20541;-87
2022/11/22 00:03:13;;;;;;;0.17;0.17;;;;;;;;;;5074473;28;20499;-86
2022/11/22 00:05:40;;;;;;;0.10;0.10;;;;;;;;;;5077485;28;20043;-86
2022/11/22 00:08:07;;;;;;;0.10;0.10;;;;;;;;;;5072886;28;20342;-86
2022/11/22 00:10:34;;;;;;;0.10;0.10;;;;;;;;;;5087512;28;20131;-85
2022/11/22 00:13:02;;;;;;;0.10;0.10;;;3.60;99.90;;;;;;5070342;28;20051;-86
2022/11/22 00:15:30;;;;;;;0.10;0.10;;;3.50;99.90;;;;;;5069910;28;20037;-86
2022/11/22 00:17:57;;;;;;;0.10;0.10;;;3.60;99.90;;;;;;5070917;28;20138;-86
2022/11/22 00:20:24;;;;;;;0.10;0.10;;;3.60;99.90;;;;;;5067308;28;20056;-87
2022/11/22 00:22:51;;;;;;;0.10;0.10;;;;;;;;;;5069234;28;20045;-87
2022/11/22 00:25:18;;;;;;;0.10;0.10;;;3.60;99.90;;;;;;5074496;28;20040;-88
2022/11/22 00:27:45;;;;;;;0.10;0.10;;;;;;;;;;5072843;28;20129;-86
2022/11/22 00:30:12;;;;;;;0.10;0.10;;;3.60;99.90;;;;;;5085810;28;20048;-89
2022/11/22 00:32:41;;;;;;;0.15;0.15;;;3.60;99.90;;;;;;5091352;28;20122;-86
2022/11/22 00:35:09;;;;;;;0.10;0.10;;;3.50;99.90;;;;;;5074921;28;20046;-86
2022/11/22 00:37:36;;;;;;;0.10;0.10;;;3.50;99.90;;;;;;5087698;28;20119;-86
2022/11/22 00:40:05;;;;;;;0.05;0.05;;;3.50;99.90;;;;;;5084380;28;20129;-87
2022/11/22 00:42:31;;;;;;;0.10;0.10;;;3.60;99.90;;;;;;5091807;28;20055;-87
2022/11/22 00:44:58;;;;;;;0.10;0.10;;;;;;;;;;5086884;28;20231;-86
2022/11/22 00:47:26;;;;;;;0.10;0.10;;;;;;;;;;5070493;28;20076;-87
2022/11/22 00:49:54;;;;;;;0.10;0.10;;;3.70;99.90;;;;;;5074349;28;20054;-87
2022/11/22 00:52:21;;;;;;;0.10;0.10;;;;;;;;;;5087240;28;20048;-87
2022/11/22 00:54:48;;;;;;;0.13;0.13;;;;;;;;;;5091365;28;20076;-87
2022/11/22 00:57:20;;;;;;;0.10;0.10;;;3.70;99.90;;;;;;5090797;28;20059;-87
2022/11/22 00:59:48;;;;;;;0.10;0.10;;;;;;;;;;5089566;28;20135;-86
2022/11/22 01:02:15;;;;;;;0.10;0.10;;;;;;;;;;5070596;28;20107;-86
2022/11/22 01:04:42;;;;;;;0.10;0.10;;;;;;;;;;5070104;28;20130;-86
2022/11/22 01:07:10;;;;;;;0.10;0.10;;;4.00;99.90;;;;;;5070386;28;20125;-87
2022/11/22 01:09:37;;;;;;;0.10;0.10;;;4.00;99.90;;;;;;5066732;28;20542;-85
2022/11/22 01:12:04;;;;;;;0.10;0.10;;;4.10;99.90;;;;;;5068770;28;20079;-86
2022/11/22 01:14:31;;;;;;;0.10;0.10;;;4.20;99.90;;;;;;5069346;28;20138;-86
2022/11/22 01:16:58;;;;;;;0.10;0.10;;;4.30;99.90;;;;;;5087265;28;20131;-86
2022/11/22 01:19:25;;;;;;;0.10;0.10;;;;;;;;;;5070883;28;20103;-87
2022/11/22 01:21:52;;;;;;;0.10;0.10;;;4.30;99.90;;;;;;5088548;28;20052;-86
2022/11/22 01:24:21;;;;;;;0.10;0.10;;;4.60;99.90;;;;;;5071313;28;20505;-88
2022/11/22 01:26:48;;;;;;;0.10;0.10;;;;;;;;;;5069240;28;20119;-86
2022/11/22 01:29:15;;;;;;;0.10;0.10;;;;;;;;;;5085573;28;20032;-86
2022/11/22 01:31:42;;;;;;;0.10;0.10;;;;;;;;;;5083632;28;20036;-86
2022/11/22 01:34:10;;;;;;;0.10;0.10;;;;;;;;;;5072775;28;20126;-86
2022/11/22 01:36:37;;;;;;;0.13;0.13;;;;;;;;;;5070182;28;20500;-86
2022/11/22 01:39:04;;;;;;;0.10;0.10;;;;;;;;;;5071266;28;20031;-87
2022/11/22 01:41:32;;;;;;;0.10;0.10;;;4.20;99.90;;;;;;5087809;28;20074;-87
2022/11/22 01:44:18;;;;;;;0.10;0.10;;;4.30;99.90;;;;;;5068498;28;20095;-87
2022/11/22 01:46:48;;;;;;;0.10;0.10;;;4.30;99.90;;;;;;5066173;28;20129;-87
2022/11/22 01:49:22;;;;;;;0.10;0.10;;;4.20;99.90;;;;;;5054706;28;20564;-89
2022/11/22 01:51:51;;;;;;;0.10;0.10;;;4.30;99.90;;;;;;5071369;28;20111;-86
2022/11/22 01:54:23;;;;;;;0.00;0.00;;;4.30;99.90;;;;;;5084318;28;20036;-86
2022/11/22 01:56:55;;;;;;;0.10;0.10;;;4.20;99.90;;;;;;5070390;28;20075;-87
2022/11/22 01:59:28;;;;;;;0.10;0.10;;;4.30;99.90;;;;;;5059105;28;20132;-87
2022/11/22 02:01:56;;;;;;;0.10;0.10;;;;;;;;;;5067484;28;20036;-87
2022/11/22 02:04:27;;;;;;;0.10;0.10;;;4.20;99.90;;;;;;5062050;28;20076;-88
2022/11/22 02:06:56;;;;;;;;;;;4.20;99.90;;;;;;5073794;28;20083;-89
2022/11/22 02:09:23;;;;;;;0.20;0.20;;;4.20;99.90;;;;;;5066758;28;19924;-86
2022/11/22 02:11:55;;;;;;;0.10;0.10;;;4.20;99.90;;;;;;5067155;28;20554;-88
2022/11/22 02:14:25;;;;;;;0.10;0.10;;;4.20;99.90;;;;;;5070903;28;20052;-86
2022/11/22 02:16:52;;;;;;;0.10;0.10;;;;;;;;;;5085314;28;20295;-86
2022/11/22 02:19:27;;;;;;;0.10;0.10;;;4.10;99.90;;;;;;5067438;28;20120;-86
2022/11/22 02:22:02;;;;;;;0.10;0.10;;;4.10;99.90;;;;;;5087100;28;20040;-87
2022/11/22 02:24:36;;;;;;;0.10;0.10;;;4.20;99.90;;;;;;5086897;28;20527;-88
2022/11/22 02:27:05;;;;;;;0.10;0.10;;;4.10;99.90;;;;;;5066455;28;20755;-87
2022/11/22 02:29:32;;;;;;;0.10;0.10;;;;;;;;;;5086288;28;20032;-87
2022/11/22 02:32:00;;;;;;;0.10;0.10;;;;;;;;;;5067701;28;20040;-86
2022/11/22 02:34:27;;;;;;;0.00;0.00;;;;;;;;;;5080362;28;20074;-87
2022/11/22 02:36:55;;;;;;;0.10;0.10;;;;;;;;;;5071450;28;20048;-87
2022/11/22 02:39:25;;;;;;;0.10;0.10;;;4.10;99.90;;;;;;5069627;28;20134;-89
2022/11/22 02:41:52;;;;;;;;;;;4.10;99.90;;;;;;5086960;28;20530;-88
2022/11/22 02:44:21;;;;;;;0.10;0.10;;;4.00;99.90;;;;;;5066026;28;20285;-87
2022/11/22 02:46:49;;;;;;;0.08;0.08;;;4.00;99.90;;;;;;5070872;28;20044;-87
2022/11/22 02:49:18;;;;;;;0.10;0.10;;;4.00;99.90;;;;;;5070443;28;20044;-87
2022/11/22 02:51:45;;;;;;;0.10;0.10;;;;;;;;;;5088573;28;20531;-86
2022/11/22 02:54:13;;;;;;;0.10;0.10;;;;;;;;;;5072348;28;20131;-88
2022/11/22 02:56:41;;;;;;;0.10;0.10;;;;;;;;;;5067420;28;20113;-87
2022/11/22 02:59:08;;;;;;;0.10;0.10;;;;;;;;;;5085403;28;21627;-86
2022/11/22 03:01:37;;;;;;;0.10;0.10;;;4.10;99.90;;;;;;5064599;28;20115;-86
2022/11/22 03:04:05;;;;;;;0.10;0.10;;;;;;;;;;5082122;28;20048;-87
2022/11/22 03:06:32;;;;;;;0.10;0.10;;;;;;;;;;5088363;28;20127;-86
2022/11/22 03:08:59;;;;;;;0.10;0.10;;;4.20;99.90;;;;;;5068838;28;20055;-84
2022/11/22 03:11:26;;;;;;;0.10;0.10;;;4.20;99.90;;;;;;5070714;28;20048;-87
2022/11/22 03:13:53;;;;;;;0.08;0.08;;;;;;;;;;5064207;28;20063;-88
2022/11/22 03:16:20;;;;;;;0.10;0.10;;;;;;;;;;5066654;28;20075;-89
2022/11/22 03:18:49;;;;;;;0.10;0.10;;;4.30;99.90;;;;;;5082072;28;20329;-86
2022/11/22 03:21:19;;;;;;;0.10;0.10;;;;;;;;;;5085276;28;20040;-87
2022/11/22 03:23:46;;;;;;;;;;;4.40;99.90;;;;;;5069859;28;20056;-87
2022/11/22 03:26:13;;;;;;;0.10;0.10;;;;;;;;;;5071562;28;19935;-87
2022/11/22 03:28:41;;;;;;;0.00;0.00;;;;;;;;;;5070924;28;20480;-88
2022/11/22 03:31:08;;;;;;;0.10;0.10;;;;;;;;;;5087453;28;20094;-86
2022/11/22 03:33:35;;;;;;;0.10;0.10;;;;;;;;;;5067619;28;20512;-87
2022/11/22 03:36:04;;;;;;;0.10;0.10;;;4.50;99.90;;;;;;5091321;28;20039;-87
2022/11/22 03:38:31;;;;;;;0.10;0.10;;;;;;;;;;5088595;28;20129;-88
2022/11/22 03:40:58;;;;;;;0.10;0.10;;;;;;;;;;5092767;28;20128;-86
2022/11/22 03:43:26;;;;;;;0.10;0.10;;;;;;;;;;5073233;28;20135;-87
2022/11/22 03:45:53;;;;;;;0.10;0.10;;;;;;;;;;5071932;28;20051;-89
2022/11/22 03:48:20;;;;;;;0.10;0.10;;;4.60;99.90;;;;;;5072523;28;20083;-88
2022/11/22 03:50:47;;;;;;;0.10;0.10;;;4.70;99.90;;;;;;5073693;28;20028;-87
2022/11/22 03:53:15;;;;;;;0.10;0.10;;;4.70;99.90;;;;;;5090845;28;20049;-90
2022/11/22 03:55:42;;;;;;;0.10;0.10;;;;;;;;;;5082083;28;20083;-86
2022/11/22 03:58:10;;;;;;;0.10;0.10;;;;;;;;;;5076649;28;20047;-87
2022/11/22 04:00:37;;;;;;;0.08;0.08;;;;;;;;;;5070721;28;20078;-86
2022/11/22 04:03:04;;;;;;;0.10;0.10;;;4.70;99.90;;;;;;5075220;28;20097;-88
2022/11/22 04:05:31;;;;;;;0.10;0.10;;;;;;;;;;5071713;28;20051;-87
2022/11/22 04:07:59;;;;;;;0.10;0.10;;;;;;;;;;5090594;28;20039;-88
2022/11/22 04:10:27;;;;;;;0.10;0.10;;;4.70;99.90;;;;;;5070425;28;20036;-87
2022/11/22 04:12:57;;;;;;;0.10;0.10;;;4.70;99.90;;;;;;5074640;28;20091;-87
2022/11/22 04:15:24;;;;;;;0.10;0.10;;;;;;;;;;5072081;28;20065;-87
2022/11/22 04:17:52;;;;;;;0.10;0.10;;;;;;;;;;5069847;28;20044;-88
2022/11/22 04:23:08;;;;;;;0.10;0.10;;;4.80;99.90;;;;;;5085330;28;20129;-89
2022/11/22 04:25:38;;;;;;;0.10;0.10;;;4.80;99.90;;;;;;5078079;28;20512;-87
2022/11/22 04:28:06;;;;;;;;;;;4.80;99.90;;;;;;5089260;28;20050;-87
2022/11/22 04:33:19;;;;;;;0.10;0.10;;;4.80;99.90;;;;;;5084275;28;20483;-87
2022/11/22 04:35:46;;;;;;;0.10;0.10;;;;;;;;;;5087081;28;20499;-87
2022/11/22 04:38:13;;;;;;;0.10;0.10;;;;;;;;;;5067766;28;20040;-87
2022/11/22 04:40:42;;;;;;;0.10;0.10;;;4.90;99.90;;;;;;5072909;28;20028;-88
2022/11/22 05:58:39;;;;;;;0.10;0.10;;;5.10;99.90;;;;;;5047675;28;20127;-88
2022/11/22 06:01:08;;;;;;;0.10;0.10;;;5.10;99.90;;;;;;5034114;28;20033;-86
2022/11/22 06:03:35;;;;;;;0.10;0.10;;;5.10;99.90;;;;;;5034726;28;20052;-87
2022/11/22 06:06:03;;;;;;;0.10;0.10;;;;;;;;;;5046169;28;20076;-87
2022/11/22 06:08:32;;;;;;;0.10;0.10;;;5.20;99.90;;;;;;5046239;28;20049;-87
2022/11/22 06:11:03;;;;;;;0.15;0.15;;;5.10;99.90;;;;;;5066759;22;20044;-84
2022/11/22 06:13:32;;;;;;;0.10;0.10;;;5.10;99.90;;;;;;5060995;28;20053;-86
2022/11/22 06:16:01;;;;;;;0.10;0.10;;;5.00;99.90;;;;;;5047263;28;20049;-85
2022/11/22 06:18:29;;;;;;;0.10;0.10;;;;;;;;;;5053634;28;20091;-84
2022/11/22 06:20:57;;;;;;;0.10;0.10;;;5.10;99.90;;;;;;5065939;28;20118;-87
2022/11/22 06:23:24;;;;;;;0.10;0.10;;;5.20;99.90;;;;;;5071990;28;20040;-85
2022/11/22 06:25:56;;;;;;;0.10;0.10;;;5.20;99.90;;;;;;5091770;28;20036;-84
2022/11/22 06:28:23;;;;;;;0.20;0.20;;;5.30;99.90;;;;;;5067273;28;20059;-84
2022/11/22 06:30:50;;;;;;;0.10;0.10;;;5.30;99.90;;;;;;5067805;28;20062;-84
2022/11/22 06:33:18;;;;;;;0.10;0.10;;;5.40;99.90;;;;;;5073485;28;20046;-85
2022/11/22 06:35:45;;;;;;;0.10;0.10;;;5.40;99.90;;;;;;5094287;28;20049;-85
2022/11/22 06:38:12;;;;;;;0.10;0.10;;;;;;;;;;5074955;28;20044;-84
2022/11/22 06:40:40;;;;;;;0.10;0.10;;;;;;;;;;5072137;28;20040;-86
2022/11/22 06:43:06;;;;;;;0.10;0.10;;;5.60;99.90;;;;;;5071885;28;20039;-83
2022/11/22 06:45:33;;;;;;;0.10;0.10;;;5.60;99.90;;;;;;5093195;28;20150;-87
2022/11/22 06:48:01;;;;;;;0.10;0.10;;;;;;;;;;5080398;28;20079;-83
2022/11/22 06:50:29;;;;;;;0.10;0.10;;;5.60;99.90;;;;;;5078340;28;20040;-86
2022/11/22 06:52:56;;;;;;;0.10;0.10;;;;;;;;;;5071873;28;20039;-84
2022/11/22 06:55:23;;;;;;;0.10;0.10;;;;;;;;;;5090414;28;20144;-87
2022/11/22 06:58:10;;;;;;;0.20;0.20;;;;;;;;;;5076815;28;20044;-82
2022/11/22 07:00:37;;;;;;;0.10;0.10;;;5.70;99.90;;;;;;5090620;28;20037;-85
2022/11/22 07:03:04;;;;;;;0.15;0.15;;;;;;;;;;5088068;28;20044;-87
2022/11/22 07:05:32;;;;;;;0.10;0.10;;;5.70;99.90;;;;;;5089948;28;20495;-84
2022/11/22 07:07:59;;;;;;;0.10;0.10;;;;;;;;;;5076137;28;20048;-84
2022/11/22 07:10:37;;;;;;;0.10;0.10;;;5.80;99.90;;;;;;5087717;28;20048;-83
2022/11/22 07:13:04;;;;;;;0.10;0.10;;;5.80;99.90;;;;;;5076674;28;20152;-83
2022/11/22 07:15:31;;;;;;;0.10;0.10;;;5.80;99.90;;;;;;5075598;28;20493;-84
2022/11/22 07:17:58;;;;;;;0.10;0.10;;;5.80;99.90;;;;;;5094430;28;20035;-88
2022/11/22 07:20:25;;;;;;;0.10;0.10;;;5.80;99.90;;;;;;5089442;28;20044;-84
2022/11/22 07:22:53;;;;;;;0.10;0.10;;;5.90;99.90;;;;;;5075622;28;20048;-85
2022/11/22 07:25:20;;;;;;;0.10;0.10;;;;;;;;;;5089650;28;20054;-85
2022/11/22 07:27:47;;;;;;;0.10;0.10;;;;;;;;;;5078647;28;20063;-87
2022/11/22 07:30:15;;;;;;;0.10;0.10;;;5.90;99.90;;;;;;5091777;28;20107;-86
2022/11/22 07:32:45;;;;;;;0.10;0.10;;;5.90;99.90;;;;;;5072781;28;20066;-85
2022/11/22 07:35:12;;;;;;;0.10;0.10;;;5.80;99.90;;;;;;5098062;28;20111;-84
2022/11/22 07:37:39;;;;;;;0.10;0.10;;;5.90;99.90;;;;;;5081277;28;20054;-84
2022/11/22 07:40:10;;;;;;;0.10;0.10;;;5.90;99.90;;;;;;5093688;28;20367;-87
2022/11/22 07:42:36;;;;;;;0.10;0.10;;;5.90;99.90;;;;;;5075859;28;20054;-81
2022/11/22 07:45:04;;;;;;;0.10;0.10;;;5.90;99.90;;;;;;5073221;28;20075;-84
2022/11/22 07:47:31;;;;;;;0.10;0.10;;;6.00;99.90;;;;;;5079264;28;20056;-85
2022/11/22 07:49:58;;;;;;;0.10;0.10;;;;;;;;;;5073307;28;20036;-85
2022/11/22 07:52:25;;;;;;;0.10;0.10;;;;;;;;;;5090921;28;20052;-84
2022/11/22 07:54:52;;;;;;;0.10;0.10;;;;;;;;;;5071476;28;20487;-84
2022/11/22 07:57:21;;;;;;;0.10;0.10;;;6.20;99.90;;;;;;5073023;28;20036;-83
2022/11/22 07:59:47;;;;;;;0.10;0.10;;;6.20;99.90;;;;;;5071307;28;20041;-86
2022/11/22 08:02:14;;;;;;;0.10;0.10;;;6.20;99.90;;;;;;5085455;28;20145;-85
2022/11/22 08:04:41;;;;;;;0.10;0.10;;;6.30;99.90;;;;;;5078108;28;20044;-84
2022/11/22 08:07:08;;;;;;;0.10;0.10;;;6.30;99.90;;;;;;5095166;28;20127;-84
2022/11/22 08:09:35;;;;;;;0.10;0.10;;;;;;;;;;5073717;28;20037;-85
2022/11/22 08:12:03;;;;;;;0.10;0.10;;;;;;;;;;5090770;28;20071;-85
2022/11/22 08:14:31;;;;;;;0.10;0.10;;;6.30;99.90;;;;;;5079451;28;20082;-84
2022/11/22 08:16:58;;;;;;;0.10;0.10;;;;;;;;;;5095772;28;20066;-86
2022/11/22 08:19:26;;;;;;;0.10;0.10;;;;;;;;;;5089132;28;20061;-84
2022/11/22 08:21:53;;;;;;;0.10;0.10;;;6.30;99.90;;;;;;5072812;28;20063;-86
2022/11/22 08:24:24;;;;;;;0.10;0.10;;;;;;;;;;5075329;28;20056;-84
2022/11/22 08:26:51;;;;;;;0.10;0.10;;;6.40;99.90;;;;;;5087734;28;20128;-85
2022/11/22 08:29:18;;;;;;;0.10;0.10;;;6.40;99.90;;;;;;5081734;28;20471;-85
2022/11/22 08:31:46;;;;;;;0.10;0.10;;;6.50;99.90;;;;;;5070331;28;20040;-85
2022/11/22 08:34:13;;;;;;;0.10;0.10;;;;;;;;;;5090172;28;20044;-84
2022/11/22 08:36:40;;;;;;;0.10;0.10;;;6.60;99.90;;;;;;5095342;28;20040;-86
2022/11/22 08:39:07;;;;;;;0.10;0.10;;;;;;;;;;5073549;28;20123;-85
2022/11/22 08:41:34;;;;;;;0.10;0.10;;;6.60;99.90;;;;;;5091974;28;20396;-84
2022/11/22 08:44:01;;;;;;;0.10;0.10;;;;;;;;;;5097490;28;20042;-85
2022/11/22 08:46:28;;;;;;;0.10;0.10;;;;;;;;;;5077939;28;20049;-86
2022/11/22 08:48:57;;;;;;;0.10;0.10;;;6.80;99.90;;;;;;5074928;28;20047;-84
2022/11/22 08:51:24;;;;;;;0.10;0.10;;;6.80;99.90;;;;;;5070808;28;20115;-85
2022/11/22 08:53:50;;;;;;;0.10;0.10;;;6.80;99.90;;;;;;5074506;28;20044;-86
2022/11/22 08:56:17;;;;;;;0.10;0.10;;;6.80;99.90;;;;;;5075534;28;20071;-84
2022/11/22 08:58:44;;;;;;;0.10;0.10;;;;;;;;;;5067674;28;20135;-87
2022/11/22 09:01:13;;;;;;;0.10;0.10;;;6.80;99.90;;;;;;5087155;28;20131;-87
2022/11/22 09:03:41;;;;;;;0.10;0.10;;;;;;;;;;5075721;28;20047;-86
2022/11/22 09:06:11;;;;;;;0.10;0.10;;;6.90;99.90;;;;;;5079863;28;20046;-85
2022/11/22 09:08:58;;;;;;;0.10;0.10;;;9.10;99.90;;;;;;5068284;28;20047;-84
2022/11/22 09:11:45;;;;;;;0.10;0.10;;;;;;;;;;5074007;28;20036;-87
2022/11/22 09:14:12;;;;;;;0.10;0.10;;;;;;;;;;5069931;28;20423;-85
2022/11/22 09:16:40;;;;;;;0.10;0.10;;;7.00;99.90;;;;;;5070722;28;20679;-84
2022/11/22 09:19:08;;;;;;;0.10;0.10;;;7.10;99.90;;;;;;5070808;28;20499;-83
2022/11/22 09:21:36;;;;;;;0.10;0.10;;;7.10;99.90;;;;;;5069544;28;20090;-86
2022/11/22 09:24:04;;;;;;;0.10;0.10;;;7.20;99.90;;;;;;5083103;28;20083;-86
2022/11/22 09:26:31;;;;;;;0.10;0.10;;;;;;;;;;5090062;28;20479;-84
2022/11/22 09:28:59;;;;;;;0.10;0.10;;;;;;;;;;5089035;28;20085;-85
2022/11/22 09:31:25;;;;;;;0.10;0.10;;;7.30;99.90;;;;;;5066359;28;20059;-84
2022/11/22 09:33:52;;;;;;;0.10;0.10;;;7.30;99.90;;;;;;5089436;28;20043;-84
2022/11/22 09:36:21;;;;;;;0.10;0.10;;;7.40;99.90;;;;;;5069545;28;20397;-84
2022/11/22 09:38:50;;;;;;;0.10;0.10;;;7.30;99.90;;;;;;5070008;28;20075;-85
2022/11/22 09:41:40;;;;;;;0.10;0.10;;;7.00;99.90;;;;;;5076243;28;20044;-87
2022/11/22 09:44:15;;;;;;;0.10;0.10;;;7.40;99.90;;;;;;5085750;28;20040;-84
2022/11/22 09:46:52;;;;;;;0.10;0.10;;;7.50;99.90;;;;;;5090456;28;20072;-84
2022/11/22 09:49:26;;;;;;;0.10;0.10;;;7.50;99.90;;;;;;5076362;28;20058;-86
2022/11/22 09:52:00;;;;;;;0.10;0.10;;;7.50;99.90;;;;;;5087798;28;20055;-86
2022/11/22 09:54:36;;;;;;;0.10;0.10;;;7.40;99.90;;;;;;5065049;28;20131;-84
2022/11/22 09:57:11;;;;;;;0.10;0.10;;;7.40;99.90;;;;;;5075761;28;20459;-85
2022/11/22 09:59:44;;;;;;;0.10;0.10;;;7.50;99.90;;;;;;5090603;28;20039;-86
2022/11/22 10:02:17;;;;;;;0.10;0.10;;;9.20;99.90;;;;;;5062875;28;20040;-84
2022/11/22 10:04:53;;;;;;;0.10;0.10;;;7.50;99.90;;;;;;5066260;28;20075;-85
2022/11/22 10:07:25;;;;;;;0.10;0.10;;;9.50;99.90;;;;;;5084295;28;20134;-87
2022/11/22 10:09:58;;;;;;;0.10;0.10;;;7.40;99.90;;;;;;5065875;28;20033;-83
2022/11/22 10:12:31;;;;;;;0.10;0.10;;;7.40;99.90;;;;;;5066401;28;20135;-84
2022/11/22 10:15:03;;;;;;;0.10;0.10;;;7.50;99.90;;;;;;5087430;28;20079;-86
2022/11/22 10:17:41;;;;;;;0.10;0.10;;;7.50;99.90;;;;;;5088986;28;20091;-84
2022/11/22 10:20:13;;;;;;;0.10;0.10;;;7.50;99.90;;;;;;5067160;28;20107;-85
2022/11/22 10:22:40;;;;;;;0.10;0.10;;;7.50;99.90;;;;;;5082018;28;20097;-85
2022/11/22 10:25:15;;;;;;;0.10;0.10;;;7.50;99.90;;;;;;5084726;28;20476;-84
2022/11/22 10:27:43;;;;;;;0.10;0.10;;;;;;;;;;5079755;28;20060;-85
2022/11/22 10:30:14;;;;;;;0.10;0.10;;;7.60;99.90;;;;;;5071439;28;20070;-86
2022/11/22 10:32:51;;;;;;;0.10;0.10;;;7.70;99.90;;;;;;5089270;28;20447;-84
2022/11/22 10:35:29;;;;;;;0.10;0.10;;;7.70;99.90;;;;;;5079129;28;20048;-86
2022/11/22 10:38:10;;;;;;;0.10;0.10;;;7.70;99.90;;;;;;5082132;28;20040;-87
2022/11/22 10:40:47;;;;;;;0.10;0.10;;;8.90;99.90;;;;;;5073284;28;20071;-84
2022/11/22 10:43:26;;;;;;;0.10;0.10;;;7.70;99.90;;;;;;5084456;28;20044;-86
2022/11/22 10:46:01;;;;;;;0.10;0.10;;;7.70;99.90;;;;;;5082794;28;20078;-86
2022/11/22 10:48:34;;;;;;;0.10;0.10;;;7.70;99.90;;;;;;5085309;28;20135;-86
2022/11/22 10:51:08;;;;;;;0.10;0.10;;;7.80;99.90;;;;;;5093960;28;20044;-86
2022/11/22 10:53:51;;;;;;;0.10;0.10;;;7.80;99.90;;;;;;5069701;28;20147;-85
2022/11/22 10:56:25;;;;;;;0.10;0.10;;;7.90;99.90;;;;;;5085920;28;20064;-86
2022/11/22 10:59:02;;;;;;;0.10;0.10;;;8.00;99.90;;;;;;5088311;28;20044;-84
2022/11/22 11:01:37;;;;;;;0.10;0.10;;;8.00;99.90;;;;;;5086256;28;20548;-84
2022/11/22 11:04:07;;;;;;;0.10;0.10;;;8.00;99.90;;;;;;5088053;28;20549;-86
2022/11/22 11:06:39;;;;;;;0.10;0.10;;;7.90;99.90;;;;;;5068555;28;20119;-85
2022/11/22 11:09:32;;;;;;;0.10;0.10;;;7.90;99.90;;;;;;5072798;28;20304;-83
2022/11/22 11:12:25;;;;;;;0.10;0.10;;;7.90;99.90;;;;;;5082888;28;20048;-84
2022/11/22 11:14:56;;;;;;;0.10;0.10;;;8.00;99.90;;;;;;5100983;28;20040;-85
2022/11/22 11:17:28;;;;;;;0.10;0.10;;;7.90;99.90;;;;;;5097479;28;20422;-85
2022/11/22 11:19:59;;;;;;;0.10;0.10;;;8.00;99.90;;;;;;5070646;28;20076;-86
2022/11/22 11:22:29;;;;;;;0.10;0.10;;;8.10;99.90;;;;;;5079153;28;20108;-85
2022/11/22 11:25:26;;;;;;;;;;;10.30;99.90;;;;;;5076088;28;20488;-86
2022/11/22 11:27:57;;;;;;;0.10;0.10;;;8.10;99.90;;;;;;5082623;28;19969;-85
2022/11/22 11:30:24;;;;;;;0.10;0.10;;;8.20;99.90;;;;;;5075373;28;20134;-86
2022/11/22 11:32:53;;;;;;;0.10;0.10;;;8.20;99.90;;;;;;5069906;28;20710;-85
2022/11/22 11:35:23;;;;;;;0.10;0.10;;;8.20;99.90;;;;;;5071412;28;20517;-82
2022/11/22 11:37:50;;;;;;;0.10;0.10;;;;;;;;;;5088010;28;20044;-84
2022/11/22 11:40:28;;;;;;;0.10;0.10;;;8.20;99.90;;;;;;5071479;28;20082;-87
2022/11/22 11:43:18;;;;;;;0.10;0.10;;;8.30;99.90;;;;;;5083591;28;20080;-86
2022/11/22 11:45:46;;;;;;;0.10;0.10;;;8.30;99.90;;;;;;5076988;28;20071;-85
2022/11/22 11:48:27;;;;;;;0.10;0.10;;;8.30;99.90;;;;;;5088974;28;20113;-87
2022/11/22 11:51:13;;;;;;;0.10;0.10;;;8.40;99.90;;;;;;5092860;28;20582;-84
2022/11/22 11:53:42;;;;;;;0.10;0.10;;;8.40;99.90;;;;;;5072348;28;20051;-84
2022/11/22 11:56:47;;;;;;;0.10;0.10;;;8.40;99.90;;;;;;5076235;28;20132;-84
2022/11/22 11:59:17;;;;;;;0.10;0.10;;;8.40;99.90;;;;;;5005121;28;20128;-85
2022/11/22 12:01:54;;;;;;;0.10;0.10;;;8.40;99.90;;;;;;5074700;28;20727;-86
2022/11/22 12:04:24;;;;;;;0.10;0.10;;;8.60;99.90;;;;;;5092082;28;20837;-86
2022/11/22 12:06:57;;;;;;;0.10;0.10;;;8.50;99.90;;;;;;5088127;28;20052;-85
2022/11/22 12:12:36;;;;;;;0.10;0.10;;;8.50;99.90;;;;;;4990397;28;20422;-88
2022/11/22 12:15:14;;;;;;;0.10;0.10;;;8.60;99.90;;;;;;4965704;28;20155;-85
2022/11/22 12:17:54;;;;;;;0.10;0.10;;;8.60;99.90;;;;;;4995103;28;20069;-89
2022/11/22 12:20:26;;;;;;;0.10;0.10;;;8.60;99.90;;;;;;4996103;28;20490;-87
2022/11/22 12:23:01;;;;;;;0.10;0.10;;;8.60;99.90;;;;;;4988850;28;20128;-86
2022/11/22 12:25:32;;;;;;;0.10;0.10;;;8.60;99.90;;;;;;5009288;28;20116;-88
2022/11/22 12:28:09;;;;;;;0.10;0.10;;;8.60;99.90;;;;;;5007998;28;20089;-86
2022/11/22 12:30:40;;;;;;;0.10;0.10;;;8.60;99.90;;;;;;5005295;28;20589;-88
2022/11/22 12:33:14;;;;;;;0.10;0.10;;;8.60;99.90;;;;;;5006003;28;20066;-86
2022/11/22 12:35:43;;;;;;;0.10;0.10;;;8.60;99.90;;;;;;5007828;28;20042;-87
2022/11/22 12:38:14;;;;;;;0.10;0.10;;;9.30;99.90;;;;;;5010050;28;20421;-86
2022/11/22 12:40:43;;;;;;;0.10;0.10;;;8.50;99.90;;;;;;5021556;28;20124;-88
2022/11/22 12:43:18;;;;;;;0.10;0.10;;;8.50;99.90;;;;;;5006050;28;20060;-83
2022/11/22 12:45:51;;;;;;;0.10;0.10;;;8.60;99.90;;;;;;5007567;28;20046;-88
2022/11/22 12:48:24;;;;;;;0.10;0.10;;;8.50;99.90;;;;;;5000857;28;20060;-86
2022/11/22 12:50:55;;;;;;;0.10;0.10;;;8.50;99.90;;;;;;5006299;28;20084;-88
2022/11/22 12:53:26;;;;;;;0.10;0.10;;;8.50;99.90;;;;;;5005598;28;20608;-84
2022/11/22 12:55:59;;;;;;;0.10;0.10;;;8.60;99.90;;;;;;5021966;28;20125;-88
2022/11/22 12:58:34;;;;;;;0.08;0.08;;;11.00;99.90;;;;;;5006585;28;20073;-89
2022/11/22 13:01:13;;;;;;;0.10;0.10;;;8.60;99.90;;;;;;5022558;28;20508;-88
2022/11/22 13:03:49;;;;;;;0.10;0.10;;;8.60;99.90;;;;;;5006527;28;20045;-87
2022/11/22 13:06:21;;;;;;;0.10;0.10;;;11.70;99.90;;;;;;5007100;28;20077;-87
2022/11/22 13:08:57;;;;;;;0.10;0.10;;;8.60;99.90;;;;;;5003782;28;20056;-88
2022/11/22 13:11:34;;;;;;;0.10;0.10;;;8.60;99.90;;;;;;4993371;28;20058;-86
2022/11/22 13:14:05;;;;;;;0.10;0.10;;;8.60;99.90;;;;;;4991140;28;20461;-88
2022/11/22 13:16:34;;;;;;;0.10;0.10;;;8.60;99.90;;;;;;5007650;28;20077;-86
2022/11/22 13:19:04;;;;;;;0.10;0.10;;;8.50;99.90;;;;;;4999253;28;20530;-87
2022/11/22 13:21:44;;;;;;;0.10;0.10;;;8.50;99.90;;;;;;5007346;28;20080;-88
2022/11/22 13:24:27;;;;;;;0.10;0.10;;;8.60;99.90;;;;;;4991346;28;20053;-87
2022/11/22 13:27:07;;;;;;;0.10;0.10;;;8.60;99.90;;;;;;5008914;28;20054;-88
2022/11/22 13:29:38;;;;;;;0.10;0.10;;;8.60;99.90;;;;;;5011885;28;20073;-87
2022/11/22 13:32:19;;;;;;;0.10;0.10;;;8.60;99.90;;;;;;5010319;28;20050;-88
2022/11/22 13:35:06;;;;;;;0.10;0.10;;;8.70;99.90;;;;;;5011334;28;20050;-87
2022/11/22 13:37:37;;;;;;;0.10;0.10;;;8.70;99.90;;;;;;4995487;28;20049;-87
2022/11/22 13:40:20;;;;;;;0.10;0.10;;;8.70;99.90;;;;;;5001087;28;20049;-87
2022/11/22 13:42:47;;;;;;;0.10;0.10;;;;;;;;;;5025462;28;20486;-86
2022/11/22 13:45:21;;;;;;;0.10;0.10;;;8.70;99.90;;;;;;4994286;28;20042;-88
2022/11/22 13:47:50;;;;;;;0.10;0.10;;;8.60;99.90;;;;;;5016810;28;20046;-86
2022/11/22 13:50:50;;;;;;;0.10;0.10;;;8.60;99.90;;;;;;5009301;28;20037;-87
2022/11/22 13:53:23;;;;;;;0.08;0.08;;;8.70;99.90;;;;;;5005360;28;20073;-87
2022/11/22 13:55:50;;;;;;;0.10;0.10;;;;;;;;;;5005287;28;20076;-86
2022/11/22 13:58:54;;;;;;;0.10;0.10;;;8.80;99.90;;;;;;5004961;28;20076;-88
2022/11/22 14:01:58;;;;;;;0.03;0.03;;;8.70;99.90;;;;;;5007777;28;20064;-84
2022/11/22 14:04:39;;;;;;;0.10;0.10;;;8.70;99.90;;;;;;5008770;28;20045;-87
2022/11/22 14:07:31;;;;;;;0.10;0.10;;;8.80;99.90;;;;;;4994778;28;20534;-87
2022/11/22 14:09:59;;;;;;;0.10;0.10;;;8.80;99.90;;;;;;4991748;28;20045;-87
2022/11/22 14:12:51;;;;;;;0.10;0.10;;;8.70;99.90;;;;;;4991147;28;20121;-87
2022/11/22 14:15:43;;;;;;;0.10;0.10;;;8.70;99.90;;;;;;4991396;28;20056;-87
2022/11/22 14:18:23;;;;;;;0.10;0.10;;;8.70;99.90;;;;;;4986993;28;20300;-88
2022/11/22 14:21:02;;;;;;;0.10;0.10;;;8.70;99.90;;;;;;4989909;28;20490;-87
2022/11/22 14:23:39;;;;;;;0.00;0.00;;;8.70;99.90;;;;;;5008176;28;20041;-87
2022/11/22 14:26:19;;;;;;;0.10;0.10;;;8.70;99.90;;;;;;4992832;28;20481;-87
2022/11/22 14:29:00;;;;;;;;;;;8.80;99.90;;;;;;5006992;28;20062;-88
2022/11/22 14:31:30;;;;;;;0.10;0.10;;;8.80;99.90;;;;;;4999678;28;20413;-88
2022/11/22 14:34:17;;;;;;;0.10;0.10;;;8.70;99.90;;;;;;4989043;28;22093;-89
2022/11/22 14:37:24;;;;;;;0.10;0.10;;;8.80;99.90;;;;;;5005663;28;20104;-87
2022/11/22 14:40:13;;;;;;;0.00;0.00;;;8.80;99.90;;;;;;5021428;28;20054;-86
2022/11/22 14:42:50;;;;;;;0.08;0.08;;;8.80;99.90;;;;;;5006708;28;20109;-87
2022/11/22 14:45:23;;;;;;;0.10;0.10;;;8.80;99.90;;;;;;5010536;28;20081;-88
2022/11/22 14:48:04;;;;;;;0.10;0.10;;;8.80;99.90;;;;;;5007214;28;20124;-88
2022/11/22 14:50:39;;;;;;;0.00;0.00;;;8.90;99.90;;;;;;5007985;28;20391;-88
2022/11/22 14:53:18;;;;;;;0.00;0.00;;;8.80;99.90;;;;;;4992254;28;20089;-88
2022/11/22 14:55:47;;;;;;;0.10;0.10;;;8.70;99.90;;;;;;5007763;28;20401;-88
2022/11/22 14:58:20;;;;;;;0.03;0.03;;;8.70;99.90;;;;;;5010816;28;20081;-83
2022/11/22 15:01:10;;;;;;;0.10;0.10;;;9.60;99.90;;;;;;5000126;28;20129;-86
2022/11/22 15:04:05;;;;;;;0.10;0.10;;;8.70;99.90;;;;;;4998845;28;20042;-88
2022/11/22 15:07:04;;;;;;;0.10;0.10;;;8.60;99.90;;;;;;4995369;28;20069;-88
2022/11/22 15:10:06;;;;;;;0.10;0.10;;;8.50;99.90;;;;;;5008629;28;20324;-88
2022/11/22 15:12:52;;;;;;;0.10;0.10;;;8.50;99.90;;;;;;5011158;28;20133;-88